createdAt,value
2022-08-28T00:00:24.052Z,8.27
2022-08-28T00:02:50.406Z,10.15
2022-08-28T00:05:16.832Z,5.93
2022-08-28T00:07:47.505Z,7.88
2022-08-28T00:10:16.323Z,9.88
2022-08-28T00:12:43.548Z,9.60
2022-08-28T00:15:09.843Z,9.80
2022-08-28T00:17:39.779Z,9.98
2022-08-28T00:20:06.092Z,10.60
2022-08-28T00:22:32.384Z,7.93
2022-08-28T00:24:58.679Z,13.43
2022-08-28T00:27:43.701Z,12.27
2022-08-28T00:30:10.402Z,15.52
2022-08-28T00:32:36.724Z,11.00
2022-08-28T00:35:03.080Z,14.10
2022-08-28T00:37:29.403Z,16.52
2022-08-28T00:39:55.781Z,23.83
2022-08-28T00:42:22.671Z,16.40
2022-08-28T00:44:49.099Z,17.02
2022-08-28T00:47:15.428Z,17.63
2022-08-28T00:49:41.741Z,17.83
2022-08-28T00:52:11.780Z,18.30
2022-08-28T00:54:38.670Z,19.13
2022-08-28T00:57:04.984Z,18.23
2022-08-28T00:59:31.290Z,19.92
2022-08-28T01:01:57.812Z,15.75
2022-08-28T01:04:24.159Z,16.75
2022-08-28T01:06:53.504Z,12.88
2022-08-28T01:09:21.090Z,15.65
2022-08-28T01:11:47.496Z,17.00
2022-08-28T01:14:13.794Z,17.15
2022-08-28T01:16:40.120Z,18.23
2022-08-28T01:19:06.907Z,17.60
2022-08-28T01:21:33.327Z,19.10
2022-08-28T01:23:59.627Z,22.35
2022-08-28T01:26:25.935Z,19.77
2022-08-28T01:28:52.244Z,21.45
2022-08-28T01:31:18.675Z,22.42
2022-08-28T01:33:45.011Z,20.23
2022-08-28T01:36:12.526Z,14.67
2022-08-28T01:38:38.832Z,17.73
2022-08-28T01:41:05.148Z,13.90
2022-08-28T01:43:31.666Z,14.00
2022-08-28T01:45:58.541Z,16.92
2022-08-28T01:48:24.836Z,14.98
2022-08-28T01:50:51.158Z,16.75
2022-08-28T01:53:17.468Z,16.83
2022-08-28T01:55:43.779Z,15.13
2022-08-28T01:58:10.215Z,13.43
2022-08-28T02:00:36.897Z,20.25
2022-08-28T02:03:03.199Z,13.93
2022-08-28T02:05:30.369Z,15.90
2022-08-28T02:07:57.174Z,19.65
2022-08-28T02:10:24.668Z,15.82
2022-08-28T02:12:51.234Z,20.55
2022-08-28T02:15:17.574Z,22.55
2022-08-28T02:17:45.113Z,22.48
2022-08-28T02:20:11.417Z,24.40
2022-08-28T02:22:37.720Z,19.25
2022-08-28T02:25:04.074Z,26.02
2022-08-28T02:27:30.959Z,25.42
2022-08-28T02:29:58.656Z,27.02
2022-08-28T02:32:24.969Z,23.08
2022-08-28T02:34:51.279Z,21.60
2022-08-28T02:37:17.587Z,26.98
2022-08-28T02:39:44.388Z,26.23
2022-08-28T02:42:10.696Z,22.80
2022-08-28T02:44:36.992Z,24.90
2022-08-28T02:47:03.884Z,28.23
2022-08-28T02:49:36.179Z,23.00
2022-08-28T02:52:02.593Z,21.73
2022-08-28T02:54:28.904Z,23.65
2022-08-28T02:56:55.311Z,25.58
2022-08-28T02:59:21.618Z,23.00
2022-08-28T03:01:48.484Z,25.70
2022-08-28T03:04:14.835Z,24.75
2022-08-28T03:06:42.005Z,27.27
2022-08-28T03:09:08.303Z,21.30
2022-08-28T03:11:34.603Z,27.45
2022-08-28T03:14:03.116Z,28.25
2022-08-28T03:16:29.468Z,25.85
2022-08-28T03:18:55.844Z,22.88
2022-08-28T03:21:22.218Z,27.13
2022-08-28T03:23:48.548Z,29.23
2022-08-28T03:26:14.852Z,26.23
2022-08-28T03:28:41.183Z,31.75
2022-08-28T03:31:07.547Z,29.15
2022-08-28T03:33:33.916Z,24.42
2022-08-28T03:36:00.231Z,25.75
2022-08-28T03:38:30.912Z,28.65
2022-08-28T03:40:57.499Z,27.17
2022-08-28T03:43:23.793Z,24.75
2022-08-28T03:45:50.994Z,26.23
2022-08-28T03:48:17.340Z,27.30
2022-08-28T03:50:43.696Z,23.77
2022-08-28T03:53:10.103Z,22.08
2022-08-28T03:55:36.705Z,22.08
2022-08-28T03:58:03.110Z,20.15
2022-08-28T04:00:29.448Z,23.92
2022-08-28T04:02:55.834Z,16.92
2022-08-28T04:05:22.407Z,14.68
2022-08-28T04:07:51.881Z,17.33
2022-08-28T04:10:18.187Z,15.50
2022-08-28T04:12:44.509Z,19.02
2022-08-28T04:15:10.817Z,12.95
2022-08-28T04:17:37.113Z,17.45
2022-08-28T04:20:03.559Z,18.65
2022-08-28T04:22:29.861Z,14.02
2022-08-28T04:24:56.285Z,13.27
2022-08-28T04:27:22.595Z,18.45
2022-08-28T04:29:49.138Z,15.70
2022-08-28T04:32:15.511Z,19.13
2022-08-28T04:34:41.900Z,16.27
2022-08-28T04:37:08.194Z,17.58
2022-08-28T04:39:34.496Z,15.57
2022-08-28T04:42:00.860Z,17.40
2022-08-28T04:44:27.168Z,16.90
2022-08-28T04:46:54.089Z,17.37
2022-08-28T04:49:20.472Z,17.20
2022-08-28T04:51:47.056Z,18.02
2022-08-28T04:54:13.485Z,18.42
2022-08-28T04:56:39.788Z,20.35
2022-08-28T04:59:06.771Z,19.58
2022-08-28T05:01:33.070Z,18.60
2022-08-28T05:03:59.406Z,16.15
2022-08-28T05:06:26.835Z,19.60
2022-08-28T05:08:54.419Z,14.48
2022-08-28T05:11:34.265Z,23.13
2022-08-28T05:14:01.045Z,19.90
2022-08-28T05:16:27.410Z,14.98
2022-08-28T05:18:53.781Z,15.82
2022-08-28T05:21:20.578Z,13.85
2022-08-28T05:23:46.886Z,16.95
2022-08-28T05:26:13.183Z,19.35
2022-08-28T05:28:40.429Z,13.00
2022-08-28T05:31:06.726Z,14.02
2022-08-28T05:33:33.028Z,13.25
2022-08-28T05:35:59.439Z,17.00
2022-08-28T05:38:25.833Z,17.63
2022-08-28T05:40:52.135Z,8.80
2022-08-28T05:43:18.468Z,11.55
2022-08-28T05:45:44.846Z,9.48
2022-08-28T05:48:11.910Z,13.32
2022-08-28T05:50:39.034Z,9.30
2022-08-28T05:53:09.350Z,11.80
2022-08-28T05:55:35.669Z,13.20
2022-08-28T05:58:21.976Z,15.13
2022-08-28T06:00:48.312Z,14.20
2022-08-28T06:03:14.885Z,13.57
2022-08-28T06:05:41.648Z,14.98
2022-08-28T06:08:08.218Z,12.02
2022-08-28T06:10:37.089Z,8.13
2022-08-28T06:13:04.912Z,10.30
2022-08-28T06:15:31.636Z,9.60
2022-08-28T06:17:57.961Z,9.63
2022-08-28T06:20:24.263Z,10.10
2022-08-28T06:22:50.731Z,18.17
2022-08-28T06:25:17.320Z,13.13
2022-08-28T06:27:43.644Z,18.52
2022-08-28T06:30:09.934Z,8.05
2022-08-28T06:32:36.261Z,19.77
2022-08-28T06:35:02.559Z,11.90
2022-08-28T06:37:29.417Z,11.85
2022-08-28T06:39:55.800Z,9.48
2022-08-28T06:42:22.146Z,9.50
2022-08-28T06:44:48.435Z,10.52
2022-08-28T06:47:15.285Z,7.47
2022-08-28T06:49:41.620Z,9.43
2022-08-28T06:52:07.922Z,10.98
2022-08-28T06:54:34.265Z,14.38
2022-08-28T06:57:00.588Z,12.20
2022-08-28T06:59:26.896Z,10.75
2022-08-28T07:01:54.370Z,11.10
2022-08-28T07:04:20.817Z,13.00
2022-08-28T07:06:53.650Z,10.07
2022-08-28T07:09:20.310Z,14.93
2022-08-28T07:11:46.752Z,14.00
2022-08-28T07:14:13.249Z,18.98
2022-08-28T07:16:39.590Z,13.05
2022-08-28T07:19:06.048Z,14.65
2022-08-28T07:21:32.614Z,10.30
2022-08-28T07:24:04.572Z,8.70
2022-08-28T07:26:30.884Z,9.38
2022-08-28T07:29:10.206Z,19.10
2022-08-28T07:31:37.800Z,6.68
2022-08-28T07:34:04.196Z,8.55
2022-08-28T07:36:30.569Z,9.73
2022-08-28T07:38:56.888Z,9.07
2022-08-28T07:41:23.572Z,9.80
2022-08-28T07:44:09.028Z,11.55
2022-08-28T07:46:35.392Z,6.20
2022-08-28T07:49:01.703Z,9.88
2022-08-28T07:51:28.056Z,6.63
2022-08-28T07:53:54.363Z,10.30
2022-08-28T07:56:20.663Z,9.30
2022-08-28T07:58:46.976Z,8.57
2022-08-28T08:01:13.360Z,8.75
2022-08-28T08:03:39.810Z,10.55
2022-08-28T08:06:06.167Z,8.65
2022-08-28T08:08:32.490Z,11.55
2022-08-28T08:10:59.155Z,10.30
2022-08-28T08:13:25.512Z,8.90
2022-08-28T08:15:51.876Z,9.50
2022-08-28T08:18:18.825Z,7.50
2022-08-28T08:20:48.676Z,12.63
2022-08-28T08:23:15.473Z,9.98
2022-08-28T08:25:41.781Z,12.57
2022-08-28T08:28:08.501Z,16.52
2022-08-28T08:33:02.198Z,15.73
2022-08-28T08:35:28.499Z,14.35
2022-08-28T08:37:54.821Z,9.10
2022-08-28T08:40:21.697Z,13.30
2022-08-28T08:42:48.036Z,8.52
2022-08-28T08:45:15.065Z,10.52
2022-08-28T08:47:41.345Z,12.53
2022-08-28T08:50:07.965Z,9.88
2022-08-28T08:52:34.351Z,10.98
2022-08-28T08:55:00.674Z,7.25
2022-08-28T08:57:27.026Z,14.07
2022-08-28T08:59:53.484Z,13.50
2022-08-28T09:02:21.228Z,11.13
2022-08-28T09:04:47.545Z,8.77
2022-08-28T09:07:13.844Z,15.95
2022-08-28T09:09:40.835Z,10.43
2022-08-28T09:12:07.078Z,14.83
2022-08-28T09:14:33.494Z,8.38
2022-08-28T09:16:59.838Z,16.60
2022-08-28T09:19:26.139Z,15.70
2022-08-28T09:21:52.440Z,9.40
2022-08-28T09:24:18.757Z,10.05
2022-08-28T09:26:45.063Z,12.10
2022-08-28T09:29:16.529Z,8.38
2022-08-28T09:31:44.041Z,10.27
2022-08-28T09:34:10.481Z,10.43
2022-08-28T09:36:36.778Z,10.65
2022-08-28T09:39:03.230Z,12.35
2022-08-28T09:41:48.347Z,19.70
2022-08-28T09:44:14.655Z,14.50
2022-08-28T09:46:44.874Z,8.85
2022-08-28T09:49:11.965Z,10.73
2022-08-28T09:51:39.389Z,15.23
2022-08-28T09:54:05.704Z,6.32
2022-08-28T09:56:34.987Z,11.15
2022-08-28T09:59:01.316Z,5.20
2022-08-28T10:01:27.834Z,12.73
2022-08-28T10:03:54.280Z,16.77
2022-08-28T10:06:20.665Z,12.20
2022-08-28T10:08:46.984Z,12.23
2022-08-28T10:11:13.286Z,7.55
2022-08-28T10:13:39.595Z,5.65
2022-08-28T10:16:06.241Z,13.57
2022-08-28T10:18:33.025Z,11.70
2022-08-28T10:23:27.450Z,13.32
2022-08-28T10:25:53.759Z,11.02
2022-08-28T10:28:20.159Z,9.57
2022-08-28T10:30:46.686Z,14.80
2022-08-28T10:33:13.058Z,8.63
2022-08-28T10:35:39.904Z,13.20
2022-08-28T10:38:06.239Z,13.65
2022-08-28T10:40:33.260Z,7.93
2022-08-28T10:42:59.627Z,9.90
2022-08-28T10:45:26.020Z,8.85
2022-08-28T10:47:52.360Z,8.50
2022-08-28T10:50:18.783Z,7.82
2022-08-28T10:52:45.105Z,10.88
2022-08-28T10:55:11.604Z,13.73
2022-08-28T10:57:39.921Z,7.18
2022-08-28T11:00:08.696Z,9.43
2022-08-28T11:02:35.218Z,13.40
2022-08-28T11:05:02.796Z,8.23
2022-08-28T11:07:29.092Z,6.25
2022-08-28T11:09:55.498Z,9.82
2022-08-28T11:12:22.431Z,8.38
2022-08-28T11:14:49.468Z,9.60
2022-08-28T11:17:15.777Z,10.85
2022-08-28T11:19:44.966Z,11.77
2022-08-28T11:22:12.632Z,6.63
2022-08-28T11:24:39.570Z,7.65
2022-08-28T11:27:10.049Z,9.70
2022-08-28T11:29:36.396Z,13.63
2022-08-28T11:32:02.721Z,7.15
2022-08-28T11:34:29.058Z,9.13
2022-08-28T11:36:55.360Z,8.07
2022-08-28T11:39:21.679Z,8.30
2022-08-28T11:41:47.979Z,11.27
2022-08-28T11:44:14.300Z,7.63
2022-08-28T11:46:40.663Z,8.65
2022-08-28T11:49:07.003Z,10.63
2022-08-28T11:51:33.307Z,8.00
2022-08-28T11:56:31.492Z,8.45
2022-08-28T11:58:58.221Z,9.73
2022-08-28T12:01:24.518Z,10.70
2022-08-28T12:03:50.852Z,11.27
2022-08-28T12:06:17.266Z,10.88
2022-08-28T12:08:43.591Z,7.63
2022-08-28T12:11:09.923Z,8.57
2022-08-28T12:13:36.233Z,10.57
2022-08-28T12:16:02.565Z,5.63
2022-08-28T12:18:28.947Z,14.35
2022-08-28T12:20:55.585Z,5.85
2022-08-28T12:23:21.884Z,8.35
2022-08-28T12:25:48.175Z,5.72
2022-08-28T12:28:14.481Z,10.43
2022-08-28T12:30:40.856Z,6.82
2022-08-28T12:33:07.367Z,6.13
2022-08-28T12:35:33.674Z,8.13
2022-08-28T12:37:59.998Z,7.93
2022-08-28T12:40:26.440Z,6.85
2022-08-28T12:42:55.283Z,7.20
2022-08-28T12:45:22.255Z,7.88
2022-08-28T12:47:48.556Z,5.70
2022-08-28T12:50:14.883Z,9.77
2022-08-28T12:52:41.181Z,18.75
2022-08-28T12:55:07.487Z,6.75
2022-08-28T12:57:34.149Z,9.55
2022-08-28T13:00:00.469Z,5.70
2022-08-28T13:02:27.326Z,5.55
2022-08-28T13:04:53.666Z,9.77
2022-08-28T13:07:21.875Z,9.27
2022-08-28T13:09:48.455Z,8.70
2022-08-28T13:12:14.760Z,19.85
2022-08-28T13:14:41.844Z,7.90
2022-08-28T13:17:08.139Z,11.30
2022-08-28T13:19:34.452Z,9.82
2022-08-28T13:22:01.860Z,7.82
2022-08-28T13:24:28.228Z,9.35
2022-08-28T13:26:54.520Z,5.53
2022-08-28T13:29:21.822Z,8.70
2022-08-28T13:31:48.125Z,5.90
2022-08-28T13:34:14.427Z,9.38
2022-08-28T13:36:41.060Z,9.38
2022-08-28T13:39:07.365Z,9.90
2022-08-28T13:41:33.887Z,5.13
2022-08-28T13:44:00.318Z,7.10
2022-08-28T13:46:26.684Z,6.90
2022-08-28T13:48:53.056Z,5.60
2022-08-28T13:51:21.052Z,10.52
2022-08-28T13:53:48.113Z,6.15
2022-08-28T13:56:16.001Z,5.47
2022-08-28T13:58:42.309Z,5.88
2022-08-28T14:01:08.713Z,8.02
2022-08-28T14:03:41.110Z,5.35
2022-08-28T14:06:07.427Z,5.90
2022-08-28T14:08:33.723Z,7.13
2022-08-28T14:11:00.049Z,4.38
2022-08-28T14:13:27.782Z,5.82
2022-08-28T14:18:20.820Z,7.38
2022-08-28T14:20:47.143Z,8.75
2022-08-28T14:23:15.943Z,4.63
2022-08-28T14:25:42.351Z,7.13
2022-08-28T14:28:08.651Z,9.68
2022-08-28T14:30:36.922Z,7.68
2022-08-28T14:33:03.235Z,9.27
2022-08-28T14:35:29.537Z,10.43
2022-08-28T14:37:55.836Z,7.53
2022-08-28T14:40:22.175Z,7.88
2022-08-28T14:42:48.536Z,6.88
2022-08-28T14:45:14.897Z,8.82
2022-08-28T14:47:41.365Z,4.78
2022-08-28T14:50:07.736Z,5.30
2022-08-28T14:52:34.179Z,6.55
2022-08-28T14:55:00.479Z,12.40
2022-08-28T14:57:26.800Z,9.45
2022-08-28T14:59:53.112Z,8.80
2022-08-28T15:02:19.420Z,7.28
2022-08-28T15:04:45.769Z,7.55
2022-08-28T15:07:12.882Z,7.47
2022-08-28T15:09:39.206Z,7.22
2022-08-28T15:12:05.628Z,5.68
2022-08-28T15:14:31.929Z,8.98
2022-08-28T15:16:58.391Z,9.80
2022-08-28T15:19:24.739Z,5.55
2022-08-28T15:21:51.189Z,5.25
2022-08-28T15:24:17.503Z,7.80
2022-08-28T15:26:43.828Z,7.30
2022-08-28T15:29:11.851Z,6.40
2022-08-28T15:31:38.189Z,6.28
2022-08-28T15:34:04.550Z,3.97
2022-08-28T15:36:32.474Z,6.75
2022-08-28T15:39:17.772Z,6.78
2022-08-28T15:41:44.251Z,7.95
2022-08-28T15:44:14.865Z,9.30
2022-08-28T15:46:41.604Z,6.57
2022-08-28T15:49:07.930Z,7.32
2022-08-28T15:56:45.264Z,8.68
2022-08-28T15:59:12.508Z,4.32
2022-08-28T16:01:38.841Z,6.68
2022-08-28T16:04:05.176Z,7.30
2022-08-28T16:06:31.474Z,5.43
2022-08-28T16:08:58.552Z,6.72
2022-08-28T16:11:24.867Z,6.60
2022-08-28T16:13:51.181Z,9.82
2022-08-28T16:16:17.505Z,6.85
2022-08-28T16:18:43.864Z,9.02
2022-08-28T16:21:10.194Z,10.40
2022-08-28T16:23:36.497Z,5.85
2022-08-28T16:26:03.427Z,5.32
2022-08-28T16:28:31.275Z,10.00
2022-08-28T16:30:57.576Z,4.13
2022-08-28T16:33:23.911Z,11.13
2022-08-28T16:35:51.541Z,8.45
2022-08-28T16:38:22.170Z,7.47
2022-08-28T16:40:48.477Z,4.80
2022-08-28T16:43:15.124Z,6.07
2022-08-28T16:45:41.423Z,5.75
2022-08-28T16:48:07.722Z,6.30
2022-08-28T16:50:34.025Z,6.95
2022-08-28T16:53:04.802Z,9.02
2022-08-28T16:55:33.059Z,6.30
2022-08-28T16:57:59.522Z,11.48
2022-08-28T17:00:25.841Z,5.32
2022-08-28T17:02:52.144Z,4.75
2022-08-28T17:05:19.473Z,6.28
2022-08-28T17:07:45.769Z,10.40
2022-08-28T17:10:12.109Z,5.70
2022-08-28T17:12:38.426Z,4.88
2022-08-28T17:15:04.757Z,5.93
2022-08-28T17:17:31.057Z,7.38
2022-08-28T17:19:57.951Z,4.50
2022-08-28T17:22:33.511Z,5.60
2022-08-28T17:24:59.879Z,4.55
2022-08-28T17:27:26.184Z,5.95
2022-08-28T17:29:52.915Z,8.30
2022-08-28T17:32:19.259Z,6.18
2022-08-28T17:34:45.568Z,3.47
2022-08-28T17:37:11.880Z,4.63
2022-08-28T17:39:38.181Z,3.85
2022-08-28T17:42:04.490Z,7.45
2022-08-28T17:44:30.796Z,7.82
2022-08-28T17:46:57.143Z,7.57
2022-08-28T17:49:23.515Z,4.05
2022-08-28T17:51:49.812Z,6.82
2022-08-28T17:54:16.669Z,5.47
2022-08-28T17:56:42.935Z,6.80
2022-08-28T17:59:10.043Z,7.07
2022-08-28T18:01:36.428Z,7.95
2022-08-28T18:04:02.824Z,4.97
2022-08-28T18:06:29.124Z,8.77
2022-08-28T18:08:55.575Z,5.78
2022-08-28T18:11:21.893Z,6.18
2022-08-28T18:13:48.192Z,7.15
2022-08-28T18:16:14.536Z,11.95
2022-08-28T18:18:41.382Z,5.57
2022-08-28T18:21:07.692Z,10.38
2022-08-28T18:23:34.000Z,7.10
2022-08-28T18:26:00.292Z,6.38
2022-08-28T18:28:26.663Z,6.30
2022-08-28T18:30:52.990Z,6.05
2022-08-28T18:33:19.449Z,5.78
2022-08-28T18:35:49.226Z,7.63
2022-08-28T18:38:16.076Z,4.70
2022-08-28T18:40:42.402Z,8.43
2022-08-28T18:43:08.704Z,4.25
2022-08-28T18:45:35.040Z,8.38
2022-08-28T18:48:01.340Z,5.55
2022-08-28T18:50:28.296Z,9.15
2022-08-28T18:52:54.530Z,8.87
2022-08-28T18:55:20.865Z,4.32
2022-08-28T18:57:47.173Z,6.45
2022-08-28T19:00:15.673Z,6.53
2022-08-28T19:02:42.091Z,7.95
2022-08-28T19:05:08.523Z,7.28
2022-08-28T19:07:34.852Z,8.30
2022-08-28T19:10:01.153Z,11.25
2022-08-28T19:12:27.484Z,9.93
2022-08-28T19:14:53.865Z,6.78
2022-08-28T19:17:21.181Z,6.47
2022-08-28T19:19:47.575Z,6.47
2022-08-28T19:22:14.032Z,5.95
2022-08-28T19:24:40.324Z,5.90
2022-08-28T19:27:06.695Z,10.48
2022-08-28T19:29:32.993Z,7.35
2022-08-28T19:31:59.309Z,13.00
2022-08-28T19:34:25.608Z,7.55
2022-08-28T19:36:51.907Z,10.43
2022-08-28T19:39:18.208Z,7.95
2022-08-28T19:41:44.530Z,4.10
2022-08-28T19:44:10.812Z,7.75
2022-08-28T19:46:37.166Z,4.75
2022-08-28T19:49:04.709Z,3.90
2022-08-28T19:51:31.025Z,5.50
2022-08-28T19:53:58.919Z,10.60
2022-08-28T19:56:27.184Z,6.80
2022-08-28T19:58:54.592Z,6.20
2022-08-28T20:01:20.997Z,10.23
2022-08-28T20:03:47.503Z,8.73
2022-08-28T20:06:13.845Z,6.38
2022-08-28T20:08:40.139Z,8.20
2022-08-28T20:11:06.433Z,7.78
2022-08-28T20:13:32.727Z,5.18
2022-08-28T20:15:59.071Z,7.00
2022-08-28T20:18:26.141Z,7.20
2022-08-28T20:20:52.505Z,7.05
2022-08-28T20:23:18.808Z,7.22
2022-08-28T20:25:45.092Z,9.45
2022-08-28T20:28:11.396Z,4.43
2022-08-28T20:30:37.723Z,4.72
2022-08-28T20:33:04.062Z,7.75
2022-08-28T20:35:30.432Z,8.10
2022-08-28T20:37:56.748Z,11.30
2022-08-28T20:40:23.127Z,8.02
2022-08-28T20:42:49.447Z,7.75
2022-08-28T21:02:11.825Z,7.77
2022-08-28T21:04:38.809Z,8.98
2022-08-28T21:07:05.280Z,6.95
2022-08-28T21:10:03.776Z,7.47
2022-08-28T21:12:17.901Z,11.20
2022-08-28T21:14:44.281Z,15.52
2022-08-28T21:17:18.354Z,6.47
2022-08-28T21:19:56.596Z,6.53
2022-08-28T21:22:22.891Z,6.88
2022-08-28T21:24:49.678Z,7.05
2022-08-28T21:27:15.982Z,7.25
2022-08-28T21:29:44.872Z,6.43
2022-08-28T21:32:11.201Z,7.03
2022-08-28T21:34:37.527Z,7.35
2022-08-28T21:37:03.912Z,9.68
2022-08-28T21:39:31.215Z,8.13
2022-08-28T21:41:57.707Z,7.97
2022-08-28T21:44:25.137Z,9.90
2022-08-28T21:46:51.448Z,7.60
2022-08-28T21:49:17.735Z,8.15
2022-08-28T21:51:44.066Z,9.75
2022-08-28T21:54:10.401Z,7.30
2022-08-28T21:56:36.761Z,9.43
2022-08-28T21:59:03.056Z,6.30
2022-08-28T22:01:29.465Z,8.95
2022-08-28T22:03:55.850Z,10.13
2022-08-28T22:06:22.170Z,9.40
2022-08-28T22:08:48.472Z,5.93
2022-08-28T22:11:14.777Z,11.82
2022-08-28T22:13:43.328Z,8.30
2022-08-28T22:16:09.683Z,8.80
2022-08-28T22:18:35.996Z,11.38
2022-08-28T22:21:21.013Z,8.38
2022-08-28T22:23:47.315Z,9.80
2022-08-28T22:26:13.611Z,7.93
2022-08-28T22:28:39.908Z,6.75
2022-08-28T22:31:06.242Z,9.38
2022-08-28T22:33:32.561Z,9.30
2022-08-28T22:35:58.867Z,9.80
2022-08-28T22:38:25.229Z,10.52
2022-08-28T22:40:51.531Z,9.63
2022-08-28T22:43:17.832Z,9.68
2022-08-28T22:45:46.058Z,7.43
2022-08-28T22:48:12.570Z,4.15
2022-08-28T22:50:38.933Z,7.00
2022-08-28T22:53:05.239Z,7.65
2022-08-28T22:55:31.537Z,6.65
2022-08-28T22:57:57.846Z,7.28
2022-08-28T23:00:24.137Z,8.07
2022-08-28T23:02:50.762Z,9.38
2022-08-28T23:05:17.100Z,8.27
2022-08-28T23:07:43.409Z,11.15
2022-08-28T23:10:09.703Z,5.05
2022-08-28T23:12:35.998Z,6.55
2022-08-28T23:15:02.292Z,7.13
2022-08-28T23:17:28.584Z,11.45
2022-08-28T23:19:54.952Z,8.65
2022-08-28T23:22:21.243Z,8.73
2022-08-28T23:24:48.600Z,7.45
2022-08-28T23:27:35.170Z,5.82
2022-08-28T23:30:01.200Z,7.68
2022-08-28T23:32:27.511Z,9.93
2022-08-28T23:34:54.741Z,9.57
2022-08-28T23:37:21.338Z,8.63
2022-08-28T23:39:48.925Z,8.85
2022-08-28T23:42:15.415Z,6.30
2022-08-28T23:44:41.796Z,11.32
2022-08-28T23:47:08.341Z,5.60
2022-08-28T23:49:34.703Z,8.93
2022-08-28T23:52:09.184Z,7.28
2022-08-28T23:54:36.390Z,7.93
2022-08-28T23:57:03.707Z,8.02
2022-08-28T23:59:31.649Z,10.27
